Flight Track Log - Related Links

Times and Time Zones

All times are in EST time to prevent confusion due to time zone crossing. See the EJA941 flight status page for this flight to view local times or setup timezone preferences in your user account.


Time Position Orientation Groundspeed Altitude Reporting Facility
EST Latitude Longitude Course Direction KTS MPH feet Rate Location/Type
Sat 08:05:32 AM 27.7475 -97.4942 187° South 164 189 1,300  Level Houston Center
Sat 08:05:38 AM 27.7433 -97.4947 187° South 182 209 1,600 3,081 Climbing Houston Center
Sat 08:06:09 AM 27.7281 -97.5222 238° Southwest 207 238 3,200 3,443 Climbing Houston Center
Sat 08:06:39 AM 27.7447 -97.5467 308° West 236 272 5,100 4,328 Climbing Houston Center
Sat 08:07:10 AM 27.7767 -97.5722 325° Northwest 244 281 7,600 4,154 Climbing Houston Center
Sat 08:08:10 AM 27.8461 -97.6194 329° Northwest 286 329 11,400 3,620 Climbing Houston Center
Sat 08:09:11 AM 27.9283 -97.6761 329° Northwest 333 383 14,900 3,197 Climbing Houston Center
Sat 08:10:12 AM 28.0119 -97.7356 328° Northwest 347 399 17,900 2,459 Climbing Houston Center
Sat 08:11:13 AM 28.0686 -97.8247 306° West 351 404 19,900 1,820 Climbing Houston Center
Sat 08:12:14 AM 28.1133 -97.9181 299° West 360 414 21,600 1,736 Climbing Houston Center
Sat 08:13:14 AM 28.1736 -98.0186 304° West 377 434 23,400 1,884 Climbing Houston Center
Sat 08:14:15 AM 28.2369 -98.1253 304° West 395 455 25,400 2,115 Climbing Houston Center
Sat 08:15:16 AM 28.3011 -98.2336 304° West 404 465 27,700 2,016 Climbing Houston Center
Sat 08:16:17 AM 28.3644 -98.3408 304° West 402 463 29,500 1,672 Climbing Houston Center
Sat 08:17:18 AM 28.4272 -98.4464 304° West 418 481 31,100 2,213 Climbing Houston Center
Sat 08:18:19 AM 28.4908 -98.5544 304° West 415 478 34,000 2,628 Climbing Houston Center
Sat 08:19:19 AM 28.5511 -98.6592 303° West 400 460 36,400 2,182 Climbing Houston Center
Sat 08:20:20 AM 28.6119 -98.7606 304° West 393 452 38,400 1,918 Climbing Houston Center
Sat 08:21:21 AM 28.6831 -98.8836 303° West 397 457 40,300 1,820 Climbing Houston Center
Sat 08:22:22 AM 28.7417 -98.9858 303° West 387 445 42,100 1,230 Climbing Houston Center
Sat 08:23:23 AM 28.8022 -99.0869 304° West 383 441 42,800 443 Climbing Houston Center
Sat 08:24:24 AM 28.8631 -99.1914 304° West 395 455 43,000 98 Climbing Houston Center
Sat 08:25:25 AM 28.9253 -99.3008 303° West 410 472 43,000  Level Houston Center
Sat 08:26:26 AM 28.9850 -99.4056 303° West 420 483 43,000  Level Houston Center
Sat 08:27:27 AM 29.0481 -99.5147 303° West 413 475 43,000  Level Houston Center
Sat 08:28:28 AM 29.1117 -99.6231 304° West 411 473 43,000  Level Houston Center
Sat 08:29:29 AM 29.1733 -99.7322 303° West 410 472 43,000  Level Houston Center
Sat 08:30:30 AM 29.2356 -99.8414 303° West 410 472 43,000  Level Houston Center
Sat 08:31:31 AM 29.2978 -99.9533 303° West 415 478 43,000  Level Houston Center
Sat 08:32:32 AM 29.3747 -100.0892 303° West 421 484 43,000  Level Houston Center
Sat 08:33:33 AM 29.4381 -100.2019 303° West 419 482 43,000  Level Houston Center
Sat 08:34:34 AM 29.5019 -100.3142 303° West 419 482 43,000 -49 Level Houston Center
Sat 08:35:35 AM 29.5653 -100.4269 303° West 418 481 42,900  Descending Houston Center
Sat 08:36:36 AM 29.6294 -100.5403 303° West 419 482 43,000 49 Climbing Houston Center
Sat 08:37:37 AM 29.6933 -100.6542 303° West 421 484 43,000  Level Houston Center
Sat 08:38:38 AM 29.7572 -100.7694 303° West 423 487 43,000 -49 Level Houston Center
Sat 08:39:39 AM 29.8214 -100.8844 303° West 425 489 42,900  Descending Houston Center
Sat 08:40:40 AM 29.8858 -101.0011 303° West 428 493 43,000 49 Climbing Houston Center
Sat 08:41:41 AM 29.9508 -101.1172 303° West 429 494 43,000  Level Houston Center
Sat 08:42:42 AM 30.0142 -101.2347 302° West 430 495 43,000  Level Houston Center
Sat 08:43:43 AM 30.0792 -101.3531 302° West 435 501 43,000  Level Houston Center
Sat 08:44:45 AM 30.1439 -101.4700 303° West 433 498 43,000  Level Houston Center
Sat 08:45:46 AM 30.2081 -101.5881 302° West 434 499 43,000  Level Houston Center
Sat 08:46:47 AM 30.2728 -101.7064 302° West 436 502 43,000  Level Houston Center
Sat 08:47:48 AM 30.3511 -101.8478 303° West 434 499 43,000  Level Houston Center
Sat 08:48:49 AM 30.4039 -101.9483 301° West 435 501 43,000  Level Houston Center
Sat 08:49:50 AM 30.4825 -102.0906 303° West 435 501 43,000  Level Houston Center
Sat 08:50:51 AM 30.5453 -102.2111 301° West 436 502 43,000  Level Houston Center
Sat 08:51:53 AM 30.6103 -102.3308 302° West 436 502 43,000  Level Houston Center
Sat 08:52:54 AM 30.6739 -102.4503 302° West 435 501 43,000  Level Houston Center
Sat 08:53:55 AM 30.7381 -102.5706 302° West 435 501 43,000  Level Houston Center
Sat 08:54:56 AM 30.8031 -102.6925 302° West 440 506 43,000  Level Houston Center
Sat 08:55:57 AM 30.8672 -102.8147 301° West 440 506 43,000  Level Houston Center
Sat 08:56:59 AM 30.9311 -102.9378 301° West 442 509 43,000  Level Houston Center
Sat 08:58:00 AM 30.9794 -103.0689 293° West 440 506 43,000  Level Houston Center
Sat 08:59:01 AM 31.0142 -103.2033 287° West 436 502 43,000  Level Houston Center
Sat 09:00:02 AM 31.0506 -103.3389 287° West 437 503 43,000  Level Houston Center
Sat 09:01:25 AM 31.1036 -103.5311 288° West 439 505 43,000  Level Albuquerque Center
Sat 09:02:25 AM 31.1403 -103.6672 288° West 439 505 43,000  Level Albuquerque Center
Sat 09:03:26 AM 31.1786 -103.8097 287° West 442 509 43,000  Level Albuquerque Center
Sat 09:04:26 AM 31.2156 -103.9469 288° West 444 511 43,000  Level Albuquerque Center
Sat 09:05:27 AM 31.2522 -104.0842 287° West 443 510 43,000  Level Albuquerque Center
Sat 09:06:27 AM 31.2881 -104.2217 287° West 445 512 43,000  Level Albuquerque Center
Sat 09:07:28 AM 31.3264 -104.3611 288° West 449 517 43,000  Level Albuquerque Center
Sat 09:08:28 AM 31.3628 -104.4994 287° West 449 517 43,000  Level Albuquerque Center
Sat 09:09:29 AM 31.3994 -104.6383 287° West 449 517 43,000  Level Albuquerque Center
Sat 09:10:29 AM 31.4361 -104.7786 287° West 452 520 43,000  Level Albuquerque Center
Sat 09:11:30 AM 31.4725 -104.9172 287° West 451 519 43,000  Level Albuquerque Center
Sat 09:12:31 AM 31.5150 -105.0833 287° West 449 517 43,000  Level Albuquerque Center
Sat 09:13:31 AM 31.5492 -105.2206 286° West 447 514 43,000  Level Albuquerque Center
Sat 09:14:32 AM 31.5844 -105.3572 287° West 443 510 43,000  Level Albuquerque Center
Sat 09:15:32 AM 31.6186 -105.4956 286° West 443 510 43,000  Level Albuquerque Center
Sat 09:16:33 AM 31.6539 -105.6344 287° West 446 513 43,000 -49 Level Albuquerque Center
Sat 09:17:34 AM 31.6889 -105.7728 287° West 445 512 42,900  Descending Albuquerque Center
Sat 09:18:34 AM 31.7233 -105.9125 286° West 447 514 43,000 50 Climbing Albuquerque Center
Sat 09:19:35 AM 31.7589 -106.0522 287° West 448 516 43,000  Level Albuquerque Center
Sat 09:20:36 AM 31.7950 -106.1944 287° West 454 522 43,000  Level Albuquerque Center
Sat 09:21:36 AM 31.8261 -106.3378 284° West 454 522 43,000  Level Albuquerque Center
Sat 09:22:37 AM 31.8325 -106.4872 273° West 456 525 43,000 -49 Level Albuquerque Center
Sat 09:23:38 AM 31.8439 -106.6458 275° West 458 527 42,900  Descending Albuquerque Center
Sat 09:24:38 AM 31.8556 -106.7931 275° West 453 521 43,000  Climbing Albuquerque Center
Sat 09:25:39 AM 31.8661 -106.9419 275° West 454 522 42,900  Descending Albuquerque Center
Sat 09:26:40 AM 31.8758 -107.0908 274° West 455 524 43,000 50 Climbing Albuquerque Center
Sat 09:27:40 AM 31.8864 -107.2425 275° West 462 532 43,000  Level Albuquerque Center
Sat 09:28:41 AM 31.8967 -107.3944 275° West 463 533 43,000  Level Albuquerque Center
Sat 09:29:42 AM 31.9069 -107.5472 275° West 465 535 43,000  Level Albuquerque Center
Sat 09:30:42 AM 31.9158 -107.7006 274° West 467 537 43,000  Level Albuquerque Center
Sat 09:31:43 AM 31.9369 -107.8511 279° West 468 539 43,000  Level Albuquerque Center
Sat 09:32:44 AM 31.9742 -107.9994 287° West 469 540 43,000  Level Albuquerque Center
Sat 09:33:44 AM 32.0092 -108.1472 286° West 469 540 43,000  Level Albuquerque Center
Sat 09:34:45 AM 32.0447 -108.2961 286° West 470 541 43,000  Level Albuquerque Center
Sat 09:35:46 AM 32.0842 -108.4625 286° West 466 536 43,000  Level Albuquerque Center
Sat 09:36:47 AM 32.1178 -108.6089 285° West 464 534 43,000  Level Albuquerque Center
Sat 09:37:47 AM 32.1528 -108.7572 286° West 466 536 43,000  Level Albuquerque Center
Sat 09:38:48 AM 32.1869 -108.9069 285° West 469 540 43,000  Level Albuquerque Center
Sat 09:39:49 AM 32.2217 -109.0558 285° West 470 541 43,000  Level Albuquerque Center
Sat 09:40:49 AM 32.2547 -109.2053 285° West 470 541 43,000 -99 Level Albuquerque Center
Sat 09:41:50 AM 32.2906 -109.3539 286° West 470 541 42,800 -1,230 Descending Albuquerque Center
Sat 09:42:51 AM 32.3275 -109.5050 286° West 473 544 40,500 -2,262 Descending Albuquerque Center
Sat 09:43:52 AM 32.3639 -109.6544 286° West 474 545 38,200 -2,281 Descending Albuquerque Center
Sat 09:44:52 AM 32.4008 -109.8075 286° West 481 554 35,900 -2,281 Descending Albuquerque Center
Sat 09:45:53 AM 32.4389 -109.9597 287° West 481 554 33,600 -2,262 Descending Albuquerque Center
Sat 09:46:54 AM 32.4753 -110.1147 286° West 486 559 31,300 -2,311 Descending Albuquerque Center
Sat 09:47:55 AM 32.5128 -110.2722 286° West 494 568 28,900 -2,430 Descending Albuquerque Center
Sat 09:48:55 AM 32.5536 -110.4200 288° West 492 566 26,400 -2,380 Descending Albuquerque Center
Sat 09:49:56 AM 32.6156 -110.5572 298° West 476 548 24,100 -1,180 Descending Albuquerque Center
Sat 09:50:57 AM 32.6889 -110.7142 299° West 459 528 24,000 -49 Descending Albuquerque Center
Sat 09:51:58 AM 32.7506 -110.8486 299° West 461 531 24,000 -1,339 Level Albuquerque Center
Sat 09:52:58 AM 32.8094 -110.9794 298° West 454 522 21,300 -3,074 Descending Albuquerque Center
Sat 09:53:59 AM 32.8656 -111.1017 299° West 430 495 17,800 -3,590 Descending Albuquerque Center
Sat 09:55:00 AM 32.9192 -111.2203 298° West 414 476 14,000 -3,541 Descending Albuquerque Center
Sat 09:56:01 AM 32.9669 -111.3242 299° West 366 421 10,600 -2,459 Descending Albuquerque Center
Sat 09:57:02 AM 33.0092 -111.4094 301° West 298 343 9,000 -1,082 Descending Albuquerque Center
Sat 09:58:03 AM 33.0497 -111.4836 303° West 271 312 8,400 -744 Descending Albuquerque Center
Sat 09:59:03 AM 33.0814 -111.5675 294° West 277 319 7,500 -942 Descending Albuquerque Center
Sat 10:00:04 AM 33.1153 -111.6508 296° West 279 321 6,500 -738 Descending Albuquerque Center
Sat 10:01:05 AM 33.1514 -111.7350 297° West 283 326 6,000 -246 Descending Albuquerque Center
Sat 10:02:06 AM 33.1883 -111.8217 297° West 291 335 6,000  Level Albuquerque Center
Sat 10:03:07 AM 33.2253 -111.9086 297° West 294 338 6,000  Level Albuquerque Center
Sat 10:04:08 AM 33.2861 -111.9717 319° Northwest 289 333 6,000  Level Albuquerque Center
Sat 10:05:08 AM 33.3481 -112.0244 325° Northwest 278 320 6,000 -298 Level Albuquerque Center
Sat 10:06:09 AM 33.4167 -112.0244 360° North 244 281 5,400 -492 Descending Albuquerque Center
Sat 10:07:10 AM 33.4778 -112.0244 360° North 225 259 5,000 -639 Descending Albuquerque Center
Sat 10:08:11 AM 33.5322 -112.0125 10° North 203 234 4,100 -1,082 Descending Albuquerque Center
Sat 10:09:12 AM 33.5767 -111.9639 42° Northeast 182 209 2,800 -1,082 Descending Albuquerque Center
Sat 10:10:13 AM 33.6033 -111.9328 44° Northeast 142 163 1,900 -689 Descending Albuquerque Center
Sat 10:11:14 AM 33.6267 -111.9061 44° Northeast 137 158 1,400 -492 Descending Albuquerque Center

Login

Don't have an account? Register now (free) for customized features, flight alerts, and more!